Time;durP1;ratioP1;P1;durP2;ratioP2;P2;SDS_P1;SDS_P2;PMS_P1;PMS_P2;Temp;Humidity;BMP_temperature;BMP_pressure;BME280_temperature;BME280_humidity;BME280_pressure;Samples;Min_cycle;Max_cycle;Signal;HPM_P1;HPM_P2
2021/10/18 00:02:20;;;;;;;8.93;5.82;;;7.20;99.90;;;8.83;99.03;101170.59;6070355;23;20014;-84
2021/10/18 00:04:46;;;;;;;9.10;6.28;;;7.20;99.90;;;8.84;98.41;101175.03;6070691;23;20102;-82
2021/10/18 00:07:13;;;;;;;8.75;5.68;;;7.20;99.90;;;8.83;98.27;101178.16;6070616;23;20018;-83
2021/10/18 00:09:39;;;;;;;7.68;5.78;;;7.20;99.90;;;8.81;98.35;101172.91;6068512;23;20318;-82
2021/10/18 00:12:06;;;;;;;12.55;6.45;;;7.20;99.90;;;8.77;98.22;101171.09;6069807;23;20003;-83
2021/10/18 00:14:32;;;;;;;8.30;5.40;;;7.10;99.90;;;8.74;98.59;101169.81;6069774;23;20003;-82
2021/10/18 00:16:59;;;;;;;8.95;6.38;;;7.10;99.90;;;8.70;98.07;101166.06;6081254;23;20027;-83
2021/10/18 00:19:24;;;;;;;11.45;6.07;;;7.10;99.90;;;8.64;98.26;101161.81;6076865;23;20014;-83
2021/10/18 00:21:50;;;;;;;9.88;5.75;;;7.00;99.90;;;8.58;97.58;101160.38;6069931;23;20456;-81
2021/10/18 00:24:16;;;;;;;9.35;6.20;;;7.00;99.90;;;8.54;97.59;101161.38;6070151;23;20031;-82
2021/10/18 00:26:42;;;;;;;7.28;5.18;;;6.90;99.90;;;8.44;98.09;101166.13;6068122;23;20057;-81
2021/10/18 00:29:09;;;;;;;6.68;5.43;;;6.90;99.90;;;8.47;98.12;101178.59;6070324;23;20448;-83
2021/10/18 00:31:36;;;;;;;8.20;5.30;;;6.80;99.90;;;8.43;98.09;101166.47;6071055;23;20003;-84
2021/10/18 00:34:02;;;;;;;9.30;5.88;;;6.80;99.90;;;8.34;98.22;101160.94;6069838;23;20007;-83
2021/10/18 00:36:28;;;;;;;12.30;5.60;;;6.80;99.90;;;8.30;98.83;101156.34;6060625;23;20527;-86
2021/10/18 00:38:54;;;;;;;8.98;5.60;;;6.70;99.90;;;8.33;98.60;101155.69;6100503;23;20006;-84
2021/10/18 00:41:20;;;;;;;9.63;5.47;;;6.80;99.90;;;8.44;98.00;101160.56;6098507;23;20343;-84
2021/10/18 00:43:49;;;;;;;11.15;5.88;;;7.00;99.90;;;8.65;96.86;101157.91;6098456;23;20010;-85
2021/10/18 00:46:23;;;;;;;11.43;5.88;;;7.00;99.90;;;8.78;95.95;101144.91;6100771;23;20048;-82
2021/10/18 00:48:52;;;;;;;9.32;5.13;;;7.20;99.90;;;8.78;94.84;101144.91;6101845;23;20475;-82
2021/10/18 00:51:25;;;;;;;10.38;5.65;;;7.20;99.90;;;8.80;94.43;101148.97;6074880;23;20029;-83
2021/10/18 00:53:56;;;;;;;8.23;5.20;;;7.20;99.90;;;8.80;93.81;101153.72;6051590;23;20452;-83
2021/10/18 00:56:24;;;;;;;6.85;4.45;;;7.20;99.90;;;8.77;93.79;101155.22;6100483;23;20007;-85
2021/10/18 00:58:53;;;;;;;6.82;4.93;;;7.20;99.90;;;8.78;93.35;101156.03;6099924;23;20370;-82
2021/10/18 01:01:20;;;;;;;8.10;5.10;;;7.20;99.90;;;8.74;92.84;101157.84;6099099;23;20026;-83
2021/10/18 01:03:46;;;;;;;8.82;4.50;;;7.20;99.90;;;8.76;92.30;101161.13;6074628;23;20093;-86
2021/10/18 01:06:13;;;;;;;7.70;4.43;;;7.30;99.90;;;8.86;91.60;101152.41;6076529;23;20011;-82
2021/10/18 01:08:39;;;;;;;10.00;4.43;;;7.30;99.90;;;8.87;91.32;101154.03;6101260;23;20018;-84
2021/10/18 01:11:06;;;;;;;8.60;4.93;;;7.30;99.90;;;8.86;91.01;101153.22;6075356;23;20056;-83
2021/10/18 01:13:33;;;;;;;7.70;4.60;;;7.40;99.90;;;8.98;90.40;101158.09;6075499;23;20435;-81
2021/10/18 01:16:02;;;;;;;6.93;4.72;;;7.40;99.90;;;9.02;90.25;101161.03;6075484;23;20320;-83
2021/10/18 01:18:29;;;;;;;6.68;4.57;;;7.40;99.90;;;8.94;90.64;101155.16;6076714;23;20091;-84
2021/10/18 01:20:55;;;;;;;7.50;4.50;;;7.30;99.90;;;8.83;90.91;101155.88;6053117;23;20014;-84
2021/10/18 01:23:21;;;;;;;7.50;4.57;;;7.20;99.90;;;8.60;91.98;101149.72;6080095;23;20408;-84
2021/10/18 01:25:46;;;;;;;8.07;5.07;;;7.00;99.90;;;8.45;92.60;101147.47;6108954;23;20014;-84
2021/10/18 01:28:16;;;;;;;7.07;5.07;;;6.80;99.90;;;8.32;93.23;101142.91;6104861;23;20089;-85
2021/10/18 01:30:42;;;;;;;7.85;4.93;;;6.70;99.90;;;8.20;93.98;101145.53;6079859;23;20352;-84
2021/10/18 01:33:08;;;;;;;10.27;4.97;;;6.60;99.90;;;8.06;94.35;101148.50;6104334;23;20002;-87
2021/10/18 01:35:34;;;;;;;9.45;5.43;;;6.50;99.90;;;7.99;95.15;101148.19;6103567;23;20010;-82
2021/10/18 01:38:00;;;;;;;8.43;4.70;;;6.40;99.90;;;7.92;95.94;101157.03;6077736;23;20013;-84
2021/10/18 01:40:28;;;;;;;7.38;5.45;;;6.40;99.90;;;7.86;96.37;101150.00;6077600;23;20007;-82
2021/10/18 01:42:55;;;;;;;11.10;5.90;;;6.30;99.90;;;7.84;96.33;101157.84;6077894;23;20006;-85
2021/10/18 01:45:23;;;;;;;7.18;4.65;;;6.30;99.90;;;7.82;96.89;101162.09;6077935;23;20013;-82
2021/10/18 01:47:50;;;;;;;7.68;6.03;;;6.20;99.90;;;7.79;96.91;101163.59;6029359;23;20021;-85
2021/10/18 01:50:21;;;;;;;8.10;5.28;;;6.20;99.90;;;7.77;97.01;101167.84;6101798;23;20011;-84
2021/10/18 01:52:50;;;;;;;9.70;5.82;;;6.20;99.90;;;7.75;97.62;101164.56;6102696;23;20018;-81
2021/10/18 01:55:18;;;;;;;7.80;5.93;;;6.20;99.90;;;7.71;97.71;101160.78;6077860;23;20022;-84
2021/10/18 01:57:47;;;;;;;11.70;6.28;;;6.10;99.90;;;7.70;98.18;101173.06;6054072;23;20396;-83
2021/10/18 02:00:15;;;;;;;7.75;5.75;;;6.10;99.90;;;7.65;98.27;101168.47;6077024;23;20037;-84
2021/10/18 02:02:43;;;;;;;11.13;5.82;;;6.10;99.90;;;7.62;98.37;101165.53;6077025;23;20090;-82
2021/10/18 02:05:10;;;;;;;13.02;5.80;;;6.10;99.90;;;7.54;98.37;101169.13;6076764;23;20026;-84
2021/10/18 02:07:36;;;;;;;8.73;5.53;;;6.00;99.90;;;7.42;98.08;101172.53;6053396;23;20084;-80
2021/10/18 02:10:02;;;;;;;7.97;5.50;;;5.90;99.90;;;7.35;98.19;101175.00;6076952;23;20463;-81
2021/10/18 02:12:28;;;;;;;10.25;5.90;;;5.80;99.90;;;7.33;98.43;101168.91;6075826;23;20424;-82
2021/10/18 02:14:55;;;;;;;12.02;5.63;;;5.80;99.90;;;7.28;99.10;101166.31;6075787;23;20089;-82
2021/10/18 02:17:21;;;;;;;11.35;5.78;;;5.70;99.90;;;7.27;98.98;101164.66;6052103;23;20440;-82
2021/10/18 02:19:47;;;;;;;10.45;6.00;;;5.70;99.90;;;7.25;100.00;101155.84;6075842;23;20085;-84
2021/10/18 02:22:13;;;;;;;11.38;6.45;;;5.80;99.90;;;7.43;100.00;101160.28;6101828;23;20081;-85
2021/10/18 02:24:39;;;;;;;8.43;5.97;;;6.00;99.90;;;7.57;99.71;101169.28;6076356;23;20018;-81
2021/10/18 02:27:05;;;;;;;10.70;7.03;;;6.20;99.90;;;7.78;98.48;101161.94;6101950;23;20044;-79
2021/10/18 02:29:31;;;;;;;11.68;6.55;;;6.30;99.90;;;7.91;97.30;101165.69;6099205;23;20128;-83
2021/10/18 02:31:56;;;;;;;11.73;6.75;;;6.40;99.90;;;8.00;96.79;101165.69;6076277;23;20448;-85
2021/10/18 02:34:22;;;;;;;9.32;5.88;;;6.40;99.90;;;8.05;96.24;101165.53;6102825;23;20003;-83
2021/10/18 02:36:48;;;;;;;8.52;5.90;;;6.50;99.90;;;8.05;95.93;101169.13;6104366;23;20010;-83
2021/10/18 02:39:14;;;;;;;9.98;5.32;;;6.40;99.90;;;7.97;95.56;101164.38;6082499;23;20010;-82
2021/10/18 02:41:40;;;;;;;9.05;5.38;;;6.40;99.90;;;7.81;95.24;101163.25;6082775;23;20014;-84
2021/10/18 02:44:06;;;;;;;5.90;4.80;;;6.20;99.90;;;7.56;94.53;101164.88;6104136;23;20017;-82
2021/10/18 02:46:32;;;;;;;6.97;4.72;;;6.00;99.90;;;7.34;95.27;101153.88;6100848;23;20010;-84
2021/10/18 02:48:57;;;;;;;10.38;6.05;;;5.80;99.90;;;7.14;95.26;101146.97;6101111;23;20301;-83
2021/10/18 02:51:23;;;;;;;9.27;5.70;;;5.60;99.90;;;6.95;95.81;101142.84;6100417;23;20010;-84
2021/10/18 02:53:49;;;;;;;9.07;5.38;;;5.40;99.90;;;6.83;96.44;101149.84;6099594;23;20316;-82
2021/10/18 02:56:15;;;;;;;11.02;5.25;;;5.30;99.90;;;6.79;97.08;101148.84;6074884;23;20006;-82
2021/10/18 02:58:41;;;;;;;8.30;5.65;;;5.20;99.90;;;6.76;97.54;101141.16;6075380;23;20010;-81
2021/10/18 03:01:09;;;;;;;6.85;5.20;;;5.20;99.90;;;6.75;97.75;101133.13;6100020;23;20021;-82
2021/10/18 03:03:35;;;;;;;9.57;5.43;;;5.20;99.90;;;6.75;98.31;101144.22;6075255;23;20105;-80
2021/10/18 03:06:01;;;;;;;8.43;5.05;;;5.20;99.90;;;6.76;98.31;101137.53;6074520;23;20030;-80
2021/10/18 03:08:26;;;;;;;8.95;5.70;;;5.20;99.90;;;6.86;98.82;101151.16;6074729;23;20449;-82
2021/10/18 03:10:52;;;;;;;10.18;6.00;;;5.20;99.90;;;6.82;98.70;101148.19;6100625;23;20085;-83
2021/10/18 03:13:18;;;;;;;8.52;5.43;;;5.20;99.90;;;6.74;98.63;101154.50;6099682;23;20041;-84
2021/10/18 03:15:44;;;;;;;8.13;5.70;;;5.20;99.90;;;6.66;98.96;101157.25;6099545;23;20045;-80
2021/10/18 03:18:10;;;;;;;7.97;5.25;;;5.10;99.90;;;6.55;99.09;101161.47;6076817;23;20011;-83
2021/10/18 03:20:37;;;;;;;9.30;6.25;;;5.00;99.90;;;6.48;99.33;101161.91;6076359;23;20093;-81
2021/10/18 03:23:04;;;;;;;9.43;6.40;;;4.90;99.90;;;6.44;99.97;101162.88;6112151;23;20026;-85
2021/10/18 03:25:36;;;;;;;9.98;6.45;;;4.90;99.90;;;6.48;100.00;101158.31;6100682;23;20006;-82
2021/10/18 03:28:05;;;;;;;11.88;6.90;;;4.90;99.90;;;6.47;100.00;101159.44;6075112;23;20097;-85
2021/10/18 03:30:31;;;;;;;9.88;7.50;;;5.00;99.90;;;6.55;100.00;101150.38;6099865;23;20011;-84
2021/10/18 03:32:57;;;;;;;9.75;6.53;;;5.00;99.90;;;6.61;100.00;101157.41;6052133;23;20030;-83
2021/10/18 03:35:24;;;;;;;10.35;6.95;;;5.00;99.90;;;6.66;100.00;101151.72;6076013;23;20018;-84
2021/10/18 03:37:51;;;;;;;9.75;6.32;;;5.10;99.90;;;6.62;100.00;101151.53;6075618;23;20428;-82
2021/10/18 03:40:17;;;;;;;10.02;6.35;;;5.10;99.90;;;6.54;100.00;101166.19;6075444;23;20444;-83
2021/10/18 03:42:42;;;;;;;14.13;7.43;;;5.10;99.90;;;6.61;100.00;101166.56;6100851;23;20136;-83
2021/10/18 03:45:12;;;;;;;9.80;6.97;;;5.10;99.90;;;6.65;100.00;101161.97;6098924;23;20021;-82
2021/10/18 03:47:38;;;;;;;10.25;7.15;;;5.10;99.90;;;6.67;100.00;101170.84;6099666;23;20014;-85
2021/10/18 03:50:09;;;;;;;14.02;7.30;;;5.20;99.90;;;6.72;100.00;101173.44;6076814;23;20376;-83
2021/10/18 03:52:35;;;;;;;12.23;7.32;;;5.20;99.90;;;6.72;100.00;101167.91;6077827;23;20014;-82
2021/10/18 03:55:03;;;;;;;13.07;8.18;;;5.20;99.90;;;6.77;100.00;101161.41;6100812;23;20013;-81
2021/10/18 03:57:29;;;;;;;18.63;7.95;;;5.20;99.90;;;6.75;100.00;101164.47;6077170;23;20022;-83
2021/10/18 03:59:55;;;;;;;10.80;7.30;;;5.20;99.90;;;6.90;100.00;101166.81;6077758;23;20024;-82
2021/10/18 04:02:21;;;;;;;9.40;6.65;;;5.30;99.90;;;6.96;100.00;101161.97;6103988;23;20013;-80
2021/10/18 04:04:47;;;;;;;10.88;7.20;;;5.40;99.90;;;6.96;100.00;101156.41;6103459;23;20328;-82
2021/10/18 04:07:12;;;;;;;12.38;7.13;;;5.30;99.90;;;6.99;100.00;101166.06;6075093;23;20536;-82
2021/10/18 04:09:39;;;;;;;9.23;6.63;;;5.40;99.90;;;7.13;100.00;101177.84;6105391;23;20013;-84
2021/10/18 04:12:06;;;;;;;11.02;6.90;;;5.50;99.90;;;7.23;100.00;101167.25;6081106;23;20093;-86
2021/10/18 04:14:33;;;;;;;11.05;7.05;;;5.70;99.90;;;7.39;100.00;101168.44;6054288;23;20010;-86
2021/10/18 04:16:58;;;;;;;10.63;6.40;;;5.80;99.90;;;7.53;99.60;101173.03;6102855;23;20463;-85
2021/10/18 04:19:24;;;;;;;12.18;7.03;;;5.80;99.90;;;7.61;99.50;101169.47;6103616;23;20010;-85
2021/10/18 04:21:50;;;;;;;11.95;7.28;;;6.00;99.90;;;7.65;98.89;101165.69;6077092;23;20010;-83
2021/10/18 04:24:16;;;;;;;10.18;5.43;;;6.00;99.90;;;7.63;98.63;101176.34;6076262;23;20022;-84
2021/10/18 04:26:42;;;;;;;8.23;5.60;;;6.00;99.90;;;7.59;98.57;101177.28;6101202;23;20018;-82
2021/10/18 04:29:08;;;;;;;10.35;6.00;;;5.90;99.90;;;7.51;98.33;101172.56;6099643;23;20014;-82
2021/10/18 04:31:35;;;;;;;9.82;5.78;;;5.90;99.90;;;7.42;97.72;101170.56;6106305;23;20002;-80
2021/10/18 04:34:01;;;;;;;8.32;5.55;;;5.80;99.90;;;7.26;97.17;101176.91;6108183;23;20002;-83
2021/10/18 04:36:29;;;;;;;8.07;5.47;;;5.60;99.90;;;6.79;98.40;101179.38;6101649;23;20052;-83
2021/10/18 04:38:57;;;;;;;10.18;5.13;;;5.40;99.90;;;6.80;97.81;101181.03;6108888;23;20078;-83
2021/10/18 04:41:23;;;;;;;8.30;5.38;;;5.30;99.90;;;6.75;98.02;101174.78;6081810;23;20412;-80
2021/10/18 04:43:50;;;;;;;9.65;5.70;;;5.20;99.90;;;6.70;98.10;101184.06;6106821;23;20006;-82
2021/10/18 04:46:16;;;;;;;9.82;5.30;;;5.10;99.90;;;6.68;98.56;101185.50;6060334;23;20015;-82
2021/10/18 04:48:42;;;;;;;8.88;6.05;;;5.10;99.90;;;6.71;98.65;101188.47;6082488;23;20506;-84
2021/10/18 04:51:08;;;;;;;9.10;6.00;;;5.10;99.90;;;6.77;98.72;101205.81;6080689;23;20011;-81
2021/10/18 04:53:34;;;;;;;15.82;6.35;;;5.10;99.90;;;6.72;98.48;101198.44;6078408;23;20015;-82
2021/10/18 04:56:00;;;;;;;9.25;5.00;;;5.10;99.90;;;6.60;98.30;101198.22;6076276;23;20464;-84
2021/10/18 04:58:26;;;;;;;10.85;5.30;;;5.00;99.90;;;6.46;98.44;101191.94;6074534;23;20010;-85
2021/10/18 05:00:56;;;;;;;10.27;6.65;;;4.80;99.90;;;6.32;98.61;101194.78;6099669;23;20505;-84
2021/10/18 05:03:24;;;;;;;11.68;6.18;;;4.70;99.90;;;6.24;98.54;101192.78;6099763;23;20081;-84
2021/10/18 05:05:51;;;;;;;11.40;6.53;;;4.60;99.90;;;6.20;99.14;101199.25;6074165;23;20045;-83
2021/10/18 05:08:17;;;;;;;10.80;6.93;;;4.60;99.90;;;6.17;99.20;101194.34;6101177;23;20467;-81
2021/10/18 05:10:44;;;;;;;10.13;6.55;;;4.60;99.90;;;6.14;99.99;101194.97;6077453;23;20006;-83
2021/10/18 05:13:15;;;;;;;10.25;6.18;;;4.50;99.90;;;6.21;99.89;101193.41;6077557;23;20014;-85
2021/10/18 05:15:42;;;;;;;11.13;6.15;;;4.60;99.90;;;6.24;99.96;101201.09;6032481;23;20011;-82
2021/10/18 05:18:08;;;;;;;9.75;6.55;;;4.60;99.90;;;6.23;100.00;101195.84;6103625;23;20006;-84
2021/10/18 05:20:35;;;;;;;9.93;7.07;;;4.60;99.90;;;6.06;100.00;101193.78;6107829;23;20017;-86
2021/10/18 05:23:03;;;;;;;14.80;7.78;;;4.60;99.90;;;6.23;100.00;101198.63;6082146;23;20002;-86
2021/10/18 05:25:29;;;;;;;15.95;7.68;;;4.70;99.90;;;6.42;100.00;101190.94;6058454;23;20077;-85
2021/10/18 05:27:57;;;;;;;12.82;8.18;;;4.80;99.90;;;6.54;100.00;101185.63;6074764;23;20016;-82
2021/10/18 05:30:26;;;;;;;14.30;8.45;;;4.90;99.90;;;6.17;100.00;101197.94;6053824;23;20417;-83
2021/10/18 05:32:55;;;;;;;15.38;9.40;;;5.00;99.90;;;6.32;100.00;101196.75;6076914;23;20010;-86
2021/10/18 05:35:23;;;;;;;14.35;8.52;;;5.20;99.90;;;6.47;100.00;101204.66;6078062;23;20344;-85
2021/10/18 05:37:51;;;;;;;13.23;7.45;;;5.30;99.90;;;6.52;100.00;101200.97;6054106;23;20014;-86
2021/10/18 05:40:20;;;;;;;12.52;7.60;;;5.40;99.90;;;6.48;100.00;101208.28;6103097;23;20010;-85
2021/10/18 05:42:47;;;;;;;9.40;6.70;;;5.30;99.90;;;6.45;100.00;101206.13;6106052;23;20011;-85
2021/10/18 05:45:14;;;;;;;11.80;6.97;;;5.30;99.90;;;6.45;100.00;101209.72;6056059;23;20030;-86
2021/10/18 05:48:03;;;;;;;13.05;7.45;;;5.40;99.90;;;6.48;100.00;101211.88;6078601;23;20011;-82
2021/10/18 05:50:44;;;;;;;10.82;6.30;;;5.40;99.90;;;6.50;100.00;101206.81;6083019;23;20081;-84
2021/10/18 05:53:12;;;;;;;12.10;7.13;;;5.40;99.90;;;6.53;100.00;101206.16;6079191;23;20009;-84
2021/10/18 05:55:39;;;;;;;12.48;7.35;;;5.40;99.90;;;6.57;100.00;101209.13;6058498;23;20015;-84
2021/10/18 05:58:12;;;;;;;13.18;7.57;;;5.40;99.90;;;6.56;100.00;101208.31;6105545;23;20061;-84
2021/10/18 06:00:43;;;;;;;11.77;6.47;;;5.40;99.90;;;6.53;100.00;101222.00;6102059;23;19998;-88
2021/10/18 06:03:14;;;;;;;9.30;6.03;;;5.40;99.90;;;6.45;100.00;101223.59;6081098;23;20094;-83
2021/10/18 06:05:46;;;;;;;10.85;6.03;;;5.30;99.90;;;6.40;100.00;101231.22;6060815;23;20014;-83
2021/10/18 06:08:15;;;;;;;14.73;6.50;;;5.30;99.90;;;6.36;100.00;101225.47;6109595;23;20474;-86
2021/10/18 06:10:43;;;;;;;14.35;6.88;;;5.30;99.90;;;6.35;100.00;101221.09;6056906;23;20401;-85
2021/10/18 06:13:11;;;;;;;12.77;7.88;;;5.30;99.90;;;6.38;100.00;101216.84;6081406;23;20013;-83
2021/10/18 06:15:38;;;;;;;13.07;8.07;;;5.30;99.90;;;6.46;100.00;101213.31;6105420;23;20017;-85
2021/10/18 06:18:23;;;;;;;16.02;9.02;;;5.40;99.90;;;6.58;100.00;101217.13;6080650;23;20006;-85
2021/10/18 06:20:54;;;;;;;15.25;8.27;;;5.50;99.90;;;6.74;100.00;101214.78;6082233;23;20070;-84
2021/10/18 06:23:23;;;;;;;13.70;8.02;;;5.60;99.90;;;6.88;100.00;101216.31;6079048;23;20022;-83
2021/10/18 06:25:49;;;;;;;13.07;7.85;;;5.70;99.90;;;6.95;100.00;101221.41;6105616;23;20009;-82
2021/10/18 06:28:16;;;;;;;12.50;7.13;;;5.80;99.90;;;6.94;100.00;101213.38;6102753;23;20030;-82
2021/10/18 06:30:43;;;;;;;13.68;7.38;;;5.80;99.90;;;6.96;100.00;101227.78;6055263;23;20018;-84
2021/10/18 06:33:09;;;;;;;11.50;7.03;;;5.80;99.90;;;6.93;100.00;101222.88;6103614;23;20006;-84
2021/10/18 06:35:38;;;;;;;14.75;7.63;;;5.80;99.90;;;6.83;100.00;101227.59;6075024;23;20014;-89
2021/10/18 06:38:18;;;;;;;11.20;6.55;;;5.70;99.90;;;6.82;100.00;101234.25;6051435;23;20011;-86
2021/10/18 06:40:47;;;;;;;18.13;10.05;;;5.70;99.90;;;7.01;100.00;101230.41;6027917;23;20010;-87
2021/10/18 06:43:14;;;;;;;15.27;9.02;;;6.00;99.90;;;7.36;100.00;101232.19;6074432;23;20013;-83
2021/10/18 06:45:41;;;;;;;10.27;7.85;;;6.30;99.90;;;7.92;100.00;101223.78;6075085;23;20313;-82
2021/10/18 06:48:09;;;;;;;12.48;8.38;;;6.80;99.90;;;8.43;100.00;101225.75;6077823;23;20007;-85
2021/10/18 06:50:37;;;;;;;14.73;8.05;;;7.10;99.90;;;8.75;99.33;101229.94;6031243;23;20559;-83
2021/10/18 06:53:06;;;;;;;12.10;7.28;;;7.40;99.90;;;8.93;98.22;101237.09;6078104;23;20010;-83
2021/10/18 06:55:33;;;;;;;13.45;7.00;;;7.60;99.90;;;9.19;97.28;101236.16;6077861;23;20010;-84
2021/10/18 06:57:59;;;;;;;9.40;6.38;;;7.80;99.90;;;9.42;96.07;101243.13;6102859;23;20030;-84
2021/10/18 07:00:25;;;;;;;12.40;7.13;;;8.00;99.90;;;9.67;93.74;101239.34;6077749;23;20010;-82
2021/10/18 07:02:51;;;;;;;10.95;6.35;;;8.20;99.90;;;9.92;92.95;101246.72;6105530;23;20009;-81
2021/10/18 07:05:17;;;;;;;15.40;10.90;;;8.40;99.90;;;10.01;90.68;101246.69;6104081;23;20010;-82
2021/10/18 07:07:43;;;;;;;25.95;17.48;;;8.50;99.90;;;10.05;88.96;101245.66;6078805;23;20014;-83
2021/10/18 07:10:10;;;;;;;29.25;17.58;;;8.50;99.90;;;10.15;88.17;101257.59;6106304;23;20011;-81
2021/10/18 07:12:37;;;;;;;21.85;13.43;;;8.60;99.90;;;10.34;88.52;101258.75;6082005;23;20381;-81
2021/10/18 07:15:05;;;;;;;17.58;10.15;;;8.80;99.90;;;10.87;88.93;101255.09;6070330;23;20007;-76
2021/10/18 07:17:31;;;;;;;14.10;8.98;;;9.30;99.90;;;11.40;87.22;101258.88;6099418;23;19994;-80
2021/10/18 07:19:59;;;;;;;13.05;8.25;;;9.70;99.90;;;11.87;84.85;101259.25;6106813;23;20014;-83
2021/10/18 07:22:40;;;;;;;11.30;7.82;;;10.20;99.90;;;12.21;83.05;101257.91;6077920;23;20014;-80
2021/10/18 07:25:07;;;;;;;9.57;6.63;;;10.60;99.90;;;12.57;80.73;101254.97;6058945;23;20007;-82
2021/10/18 07:27:33;;;;;;;12.32;6.80;;;10.90;99.90;;;12.86;79.87;101250.97;6054722;23;20010;-80
2021/10/18 07:30:01;;;;;;;10.40;6.22;;;11.20;99.90;;;13.07;79.66;101246.75;6105301;23;20468;-83
2021/10/18 07:32:27;;;;;;;7.68;5.95;;;11.40;99.90;;;13.02;79.30;101255.44;6080437;23;20006;-82
2021/10/18 07:34:56;;;;;;;12.30;7.10;;;11.50;99.90;;;12.85;78.56;101249.34;6105216;23;20333;-81
2021/10/18 07:37:26;;;;;;;11.90;6.20;;;11.40;99.90;;;12.90;78.82;101255.50;6106446;23;20006;-81
2021/10/18 07:39:52;;;;;;;10.23;6.35;;;11.40;99.90;;;12.88;77.90;101251.41;6106586;23;20006;-82
2021/10/18 07:42:18;;;;;;;13.88;6.18;;;11.50;99.90;;;12.75;78.09;101247.88;6078764;23;20006;-82
2021/10/18 07:44:46;;;;;;;14.65;7.25;;;11.40;99.90;;;12.60;79.76;101238.25;6109357;23;20017;-81
2021/10/18 07:47:13;;;;;;;13.57;7.15;;;11.30;99.90;;;12.57;79.29;101233.38;6085717;23;20014;-81
2021/10/18 07:49:42;;;;;;;13.63;6.72;;;11.30;99.90;;;12.89;79.21;101239.03;6082772;23;20094;-83
2021/10/18 07:52:13;;;;;;;9.77;6.10;;;11.50;99.90;;;12.97;77.71;101240.88;6107756;23;20449;-82
2021/10/18 07:54:42;;;;;;;12.07;6.45;;;11.70;99.90;;;12.72;76.42;101239.34;6107266;23;20009;-82
2021/10/18 07:57:09;;;;;;;14.85;6.75;;;11.60;99.90;;;12.83;77.64;101246.91;6082096;23;20086;-82
2021/10/18 07:59:36;;;;;;;13.00;6.63;;;11.70;99.90;;;13.09;77.60;101254.84;6108263;23;20010;-83
2021/10/18 08:02:02;;;;;;;10.82;7.03;;;11.80;99.90;;;13.48;76.00;101256.66;6057907;23;20349;-83
2021/10/18 08:04:28;;;;;;;12.35;7.18;;;12.10;99.90;;;13.61;75.15;101263.00;6108189;23;20006;-84
2021/10/18 08:06:54;;;;;;;15.98;7.60;;;12.30;99.90;;;13.59;74.61;101257.72;6110605;23;20010;-85
2021/10/18 08:09:22;;;;;;;12.70;6.95;;;12.30;99.90;;;13.87;74.95;101268.81;6109469;23;20029;-83
2021/10/18 08:11:48;;;;;;;11.13;6.40;;;12.50;99.90;;;14.15;74.24;101275.09;6080860;23;20066;-82
2021/10/18 08:14:16;;;;;;;9.95;6.43;;;12.70;99.90;;;14.43;73.97;101272.13;6108141;23;20010;-82
2021/10/18 08:16:43;;;;;;;11.20;6.68;;;13.00;99.90;;;14.53;72.93;101267.91;6082615;23;20006;-84
2021/10/18 08:19:10;;;;;;;10.35;6.57;;;13.10;99.90;;;14.45;71.95;101266.94;6105088;23;20069;-83
2021/10/18 08:21:36;;;;;;;11.23;7.07;;;13.10;99.90;;;14.43;71.75;101262.88;6081680;23;20010;-82
2021/10/18 08:24:02;;;;;;;12.88;6.65;;;13.10;99.90;;;14.66;71.80;101261.75;6106516;23;20091;-82
2021/10/18 08:26:28;;;;;;;8.35;6.32;;;13.40;99.90;;;14.67;70.94;101266.19;6108000;23;20425;-82
2021/10/18 08:28:54;;;;;;;9.63;6.40;;;13.40;99.90;;;15.06;70.41;101274.56;6108145;23;20037;-83
2021/10/18 08:31:20;;;;;;;10.18;6.53;;;13.70;99.90;;;15.29;68.73;101266.94;6103957;23;20002;-84
2021/10/18 08:33:47;;;;;;;13.15;6.25;;;13.80;99.90;;;15.21;68.75;101260.41;6103540;23;20081;-84
2021/10/18 08:36:13;;;;;;;10.80;6.75;;;13.90;99.90;;;15.37;67.93;101253.81;6102756;23;20425;-81
2021/10/18 08:41:22;;;;;;;9.90;5.97;;;14.10;99.90;;;15.85;66.81;101253.03;6113726;23;20052;-84
2021/10/18 08:46:33;;;;;;;15.30;6.60;;;14.70;99.90;;;16.32;65.48;101258.13;6104874;23;20025;-83
2021/10/18 08:49:00;;;;;;;13.18;6.88;;;14.80;99.90;;;16.05;64.57;101263.00;6078503;23;20010;-82
2021/10/18 08:51:27;;;;;;;13.43;6.70;;;14.80;99.90;;;16.33;64.42;101265.41;6102931;23;20074;-83
2021/10/18 08:53:55;;;;;;;10.48;6.15;;;14.90;99.90;;;16.12;65.88;101259.44;6104251;23;20003;-83
2021/10/18 08:56:22;;;;;;;15.40;7.28;;;14.80;99.90;;;16.12;64.50;101260.28;6077483;23;20043;-83
2021/10/18 08:58:48;;;;;;;13.65;6.90;;;14.80;99.90;;;15.61;65.97;101264.72;6104565;23;20010;-84
2021/10/18 09:01:16;;;;;;;11.65;6.60;;;14.60;99.90;;;15.99;64.75;101261.69;6077133;23;20015;-84
2021/10/18 09:03:42;;;;;;;12.73;7.00;;;14.70;99.90;;;15.79;64.43;101260.19;6078699;23;20456;-83
2021/10/18 09:06:21;;;;;;;11.20;7.57;;;14.60;99.90;;;16.05;64.50;101260.19;6105961;23;20006;-84
2021/10/18 09:08:55;;;;;;;8.68;5.35;;;14.70;99.90;;;16.29;64.08;101261.72;6034105;23;20018;-86
2021/10/18 09:11:28;;;;;;;10.80;6.82;;;14.80;99.90;;;16.21;63.89;101257.97;6106567;23;20033;-84
2021/10/18 09:13:54;;;;;;;11.55;6.68;;;14.90;99.90;;;15.91;63.27;101259.97;6082143;23;20042;-84
2021/10/18 09:16:30;;;;;;;12.90;6.95;;;14.80;99.90;;;16.02;64.29;101260.94;6106747;23;20057;-84
2021/10/18 09:19:12;;;;;;;;;;;14.80;99.90;;;16.07;64.04;101257.78;6084665;23;20034;-85
2021/10/18 09:22:08;;;;;;;12.35;5.93;;;14.80;99.90;;;15.88;64.00;101259.91;6059334;23;20400;-81
2021/10/18 09:24:34;;;;;;;11.15;6.13;;;14.80;99.90;;;15.85;63.92;101249.41;6103986;23;20010;-84
2021/10/18 09:27:07;;;;;;;9.38;5.97;;;14.70;99.90;;;15.92;63.53;101250.34;6106193;23;20037;-84
2021/10/18 09:29:45;;;;;;;8.15;5.97;;;14.70;99.90;;;15.78;63.66;101247.28;6034308;23;20444;-82
2021/10/18 09:32:31;;;;;;;10.45;7.05;;;14.70;99.90;;;15.66;63.12;101253.97;6083541;23;20006;-82
2021/10/18 09:35:07;;;;;;;10.52;5.82;;;14.60;99.90;;;16.02;63.06;101244.00;6106771;23;20006;-80
2021/10/18 09:37:45;;;;;;;9.55;5.70;;;14.80;99.90;;;16.25;63.03;101258.03;6107726;23;20013;-82
2021/10/18 09:40:34;;;;;;;11.50;6.13;;;15.00;99.90;;;16.42;61.25;101251.81;6079995;23;20014;-84
2021/10/18 09:45:36;;;;;;;10.95;5.93;;;15.20;99.90;;;16.37;61.26;101259.81;6113117;23;20105;-82
2021/10/18 10:51:35;;;;;;;7.57;3.55;;;16.70;90.10;;;17.62;51.70;101210.78;6108782;23;20040;-81
2021/10/18 10:54:05;;;;;;;4.90;3.15;;;16.60;90.10;;;17.32;52.83;101219.38;6082407;23;20007;-81
2021/10/18 10:56:48;;;;;;;6.63;3.60;;;16.30;90.50;;;17.49;53.25;101215.06;6109865;23;20069;-82
2021/10/18 10:59:31;;;;;;;6.07;3.08;;;16.40;91.50;;;17.84;50.88;101223.84;6059417;23;20010;-81
2021/10/18 11:02:10;;;;;;;5.55;2.85;;;16.70;89.70;;;18.02;50.46;101220.28;6068799;23;20455;-83
2021/10/18 11:04:39;;;;;;;4.55;2.70;;;16.80;87.10;;;17.87;51.23;101213.75;6109651;23;20061;-83
2021/10/18 11:07:18;;;;;;;6.85;2.83;;;16.80;87.90;;;18.12;51.64;101211.06;6083357;23;20011;-83
2021/10/18 11:09:58;;;;;;;6.22;2.67;;;16.90;90.00;;;18.34;52.84;101193.81;6110117;23;20010;-83
2021/10/18 11:12:33;;;;;;;4.60;2.50;;;17.00;91.30;;;18.66;51.21;101198.78;6084426;23;20006;-82
2021/10/18 11:15:08;;;;;;;3.63;2.07;;;17.20;90.00;;;18.38;50.71;101191.00;6085347;23;19999;-81
2021/10/18 11:17:53;;;;;;;6.05;2.47;;;17.10;87.10;;;18.33;50.43;101172.38;6084652;23;20017;-81
2021/10/18 11:20:27;;;;;;;4.40;2.50;;;17.10;86.60;;;18.39;51.97;101170.81;6111073;23;20017;-81
2021/10/18 11:23:00;;;;;;;9.80;3.10;;;17.10;90.20;;;18.49;51.39;101182.56;6059428;23;20105;-84
2021/10/18 11:25:36;;;;;;;6.20;2.90;;;17.20;88.60;;;18.65;51.13;101183.03;6110290;23;20440;-83
2021/10/18 11:28:07;;;;;;;7.00;2.55;;;17.30;88.90;;;18.55;49.87;101192.31;6084677;23;20033;-83
2021/10/18 11:30:38;;;;;;;5.13;2.95;;;17.30;86.30;;;18.85;50.10;101179.44;6086514;23;20021;-80
2021/10/18 11:33:11;;;;;;;4.00;2.47;;;17.40;86.50;;;19.19;50.76;101185.53;6063177;23;20017;-84
2021/10/18 11:35:39;;;;;;;7.10;2.40;;;17.60;88.40;;;19.33;49.04;101181.88;6110428;23;20006;-81